sensor_id;sensor_type;location;lat;lon;timestamp;P1;durP1;ratioP1;P2;durP2;ratioP2
9789;SDS011;4934;50.852;8.098;2024-01-30T00:02:08;42.13;;;17.48;;
9789;SDS011;4934;50.852;8.098;2024-01-30T00:04:33;34.05;;;16.48;;
9789;SDS011;4934;50.852;8.098;2024-01-30T00:06:59;37.67;;;17.73;;
9789;SDS011;4934;50.852;8.098;2024-01-30T00:09:24;43.15;;;17.13;;
9789;SDS011;4934;50.852;8.098;2024-01-30T00:11:50;37.85;;;17.23;;
9789;SDS011;4934;50.852;8.098;2024-01-30T00:14:16;34.10;;;16.17;;
9789;SDS011;4934;50.852;8.098;2024-01-30T00:16:41;37.35;;;16.75;;
9789;SDS011;4934;50.852;8.098;2024-01-30T00:19:07;37.60;;;16.48;;
9789;SDS011;4934;50.852;8.098;2024-01-30T00:21:33;50.13;;;22.27;;
9789;SDS011;4934;50.852;8.098;2024-01-30T00:23:59;39.17;;;17.53;;
9789;SDS011;4934;50.852;8.098;2024-01-30T00:26:24;43.72;;;18.40;;
9789;SDS011;4934;50.852;8.098;2024-01-30T00:28:50;71.43;;;28.05;;
9789;SDS011;4934;50.852;8.098;2024-01-30T00:31:15;42.78;;;17.95;;
9789;SDS011;4934;50.852;8.098;2024-01-30T00:33:41;37.67;;;17.67;;
9789;SDS011;4934;50.852;8.098;2024-01-30T00:36:07;37.20;;;17.63;;
9789;SDS011;4934;50.852;8.098;2024-01-30T00:38:33;38.30;;;17.75;;
9789;SDS011;4934;50.852;8.098;2024-01-30T00:40:59;41.33;;;19.35;;
9789;SDS011;4934;50.852;8.098;2024-01-30T00:43:25;33.88;;;16.38;;
9789;SDS011;4934;50.852;8.098;2024-01-30T00:45:51;37.40;;;16.57;;
9789;SDS011;4934;50.852;8.098;2024-01-30T00:51:08;36.75;;;16.65;;
9789;SDS011;4934;50.852;8.098;2024-01-30T00:53:34;38.03;;;15.60;;
9789;SDS011;4934;50.852;8.098;2024-01-30T00:55:59;34.10;;;15.45;;
9789;SDS011;4934;50.852;8.098;2024-01-30T00:58:25;34.07;;;16.10;;
9789;SDS011;4934;50.852;8.098;2024-01-30T01:00:51;34.28;;;15.10;;
9789;SDS011;4934;50.852;8.098;2024-01-30T01:03:17;33.53;;;16.25;;
9789;SDS011;4934;50.852;8.098;2024-01-30T01:05:42;36.33;;;15.98;;
9789;SDS011;4934;50.852;8.098;2024-01-30T01:08:08;32.88;;;16.38;;
9789;SDS011;4934;50.852;8.098;2024-01-30T01:10:34;42.13;;;17.73;;
9789;SDS011;4934;50.852;8.098;2024-01-30T01:12:59;36.83;;;16.30;;
9789;SDS011;4934;50.852;8.098;2024-01-30T01:15:25;39.10;;;17.90;;
9789;SDS011;4934;50.852;8.098;2024-01-30T01:17:50;41.07;;;18.27;;
9789;SDS011;4934;50.852;8.098;2024-01-30T01:20:16;43.87;;;17.00;;
9789;SDS011;4934;50.852;8.098;2024-01-30T01:22:41;38.97;;;16.57;;
9789;SDS011;4934;50.852;8.098;2024-01-30T01:25:08;31.63;;;14.87;;
9789;SDS011;4934;50.852;8.098;2024-01-30T01:27:35;33.90;;;14.50;;
9789;SDS011;4934;50.852;8.098;2024-01-30T01:30:05;32.58;;;13.43;;
9789;SDS011;4934;50.852;8.098;2024-01-30T01:32:35;37.43;;;15.23;;
9789;SDS011;4934;50.852;8.098;2024-01-30T01:35:01;42.80;;;16.63;;
9789;SDS011;4934;50.852;8.098;2024-01-30T01:37:27;36.63;;;14.98;;
9789;SDS011;4934;50.852;8.098;2024-01-30T01:40:02;40.88;;;16.45;;
9789;SDS011;4934;50.852;8.098;2024-01-30T01:42:28;43.37;;;17.03;;
9789;SDS011;4934;50.852;8.098;2024-01-30T01:44:54;42.77;;;16.73;;
9789;SDS011;4934;50.852;8.098;2024-01-30T01:47:20;38.85;;;17.05;;
9789;SDS011;4934;50.852;8.098;2024-01-30T01:49:45;36.00;;;16.58;;
9789;SDS011;4934;50.852;8.098;2024-01-30T01:52:11;39.55;;;14.38;;
9789;SDS011;4934;50.852;8.098;2024-01-30T01:54:37;38.53;;;15.48;;
9789;SDS011;4934;50.852;8.098;2024-01-30T01:57:02;39.92;;;16.85;;
9789;SDS011;4934;50.852;8.098;2024-01-30T01:59:29;35.92;;;16.60;;
9789;SDS011;4934;50.852;8.098;2024-01-30T02:01:55;37.90;;;15.40;;
9789;SDS011;4934;50.852;8.098;2024-01-30T02:04:21;39.67;;;17.60;;
9789;SDS011;4934;50.852;8.098;2024-01-30T02:06:46;43.20;;;18.10;;
9789;SDS011;4934;50.852;8.098;2024-01-30T02:09:12;44.43;;;16.93;;
9789;SDS011;4934;50.852;8.098;2024-01-30T02:11:38;62.37;;;33.83;;
9789;SDS011;4934;50.852;8.098;2024-01-30T02:14:04;38.63;;;20.17;;
9789;SDS011;4934;50.852;8.098;2024-01-30T02:16:30;35.97;;;16.75;;
9789;SDS011;4934;50.852;8.098;2024-01-30T02:18:56;43.47;;;19.47;;
9789;SDS011;4934;50.852;8.098;2024-01-30T02:21:22;42.27;;;18.80;;
9789;SDS011;4934;50.852;8.098;2024-01-30T02:23:48;40.25;;;18.15;;
9789;SDS011;4934;50.852;8.098;2024-01-30T02:26:14;41.20;;;18.17;;
9789;SDS011;4934;50.852;8.098;2024-01-30T02:28:40;37.47;;;16.52;;
9789;SDS011;4934;50.852;8.098;2024-01-30T02:31:05;33.47;;;15.37;;
9789;SDS011;4934;50.852;8.098;2024-01-30T02:33:31;42.83;;;15.83;;
9789;SDS011;4934;50.852;8.098;2024-01-30T02:35:57;40.33;;;16.00;;
9789;SDS011;4934;50.852;8.098;2024-01-30T02:38:23;39.95;;;15.65;;
9789;SDS011;4934;50.852;8.098;2024-01-30T02:40:49;28.27;;;13.00;;
9789;SDS011;4934;50.852;8.098;2024-01-30T02:43:15;34.17;;;14.30;;
9789;SDS011;4934;50.852;8.098;2024-01-30T02:45:41;29.80;;;13.60;;
9789;SDS011;4934;50.852;8.098;2024-01-30T02:48:07;33.80;;;13.67;;
9789;SDS011;4934;50.852;8.098;2024-01-30T02:50:32;33.30;;;15.07;;
9789;SDS011;4934;50.852;8.098;2024-01-30T02:52:58;39.23;;;16.27;;
9789;SDS011;4934;50.852;8.098;2024-01-30T02:55:24;40.27;;;16.30;;
9789;SDS011;4934;50.852;8.098;2024-01-30T02:57:49;34.70;;;14.70;;
9789;SDS011;4934;50.852;8.098;2024-01-30T03:00:15;40.03;;;16.80;;
9789;SDS011;4934;50.852;8.098;2024-01-30T03:02:40;39.63;;;16.47;;
9789;SDS011;4934;50.852;8.098;2024-01-30T03:05:07;38.30;;;15.63;;
9789;SDS011;4934;50.852;8.098;2024-01-30T03:07:33;41.30;;;17.00;;
9789;SDS011;4934;50.852;8.098;2024-01-30T03:09:59;41.73;;;16.80;;
9789;SDS011;4934;50.852;8.098;2024-01-30T03:12:25;42.70;;;19.10;;
9789;SDS011;4934;50.852;8.098;2024-01-30T03:14:51;47.93;;;18.47;;
9789;SDS011;4934;50.852;8.098;2024-01-30T03:17:17;41.07;;;18.53;;
9789;SDS011;4934;50.852;8.098;2024-01-30T03:19:43;47.27;;;16.77;;
9789;SDS011;4934;50.852;8.098;2024-01-30T03:22:08;37.63;;;15.33;;
9789;SDS011;4934;50.852;8.098;2024-01-30T03:24:34;40.00;;;16.27;;
9789;SDS011;4934;50.852;8.098;2024-01-30T03:26:59;44.23;;;18.03;;
9789;SDS011;4934;50.852;8.098;2024-01-30T03:29:25;42.80;;;17.33;;
9789;SDS011;4934;50.852;8.098;2024-01-30T03:31:50;38.77;;;17.03;;
9789;SDS011;4934;50.852;8.098;2024-01-30T03:34:16;41.40;;;17.40;;
9789;SDS011;4934;50.852;8.098;2024-01-30T03:36:42;48.30;;;18.30;;
9789;SDS011;4934;50.852;8.098;2024-01-30T03:39:07;38.03;;;16.40;;
9789;SDS011;4934;50.852;8.098;2024-01-30T03:41:33;41.23;;;16.97;;
9789;SDS011;4934;50.852;8.098;2024-01-30T03:43:58;45.73;;;18.40;;
9789;SDS011;4934;50.852;8.098;2024-01-30T03:46:24;38.03;;;15.80;;
9789;SDS011;4934;50.852;8.098;2024-01-30T03:48:50;94.77;;;39.03;;
9789;SDS011;4934;50.852;8.098;2024-01-30T03:51:15;79.80;;;34.80;;
9789;SDS011;4934;50.852;8.098;2024-01-30T03:53:41;53.17;;;21.27;;
9789;SDS011;4934;50.852;8.098;2024-01-30T03:56:08;45.57;;;19.40;;
9789;SDS011;4934;50.852;8.098;2024-01-30T03:58:33;44.63;;;19.83;;
9789;SDS011;4934;50.852;8.098;2024-01-30T04:00:59;43.30;;;19.30;;
9789;SDS011;4934;50.852;8.098;2024-01-30T04:03:25;36.67;;;17.27;;
9789;SDS011;4934;50.852;8.098;2024-01-30T04:05:53;38.70;;;16.83;;
9789;SDS011;4934;50.852;8.098;2024-01-30T04:08:19;49.30;;;19.90;;
9789;SDS011;4934;50.852;8.098;2024-01-30T04:10:46;37.70;;;17.00;;
9789;SDS011;4934;50.852;8.098;2024-01-30T04:13:11;48.07;;;17.83;;
9789;SDS011;4934;50.852;8.098;2024-01-30T04:15:37;48.93;;;18.20;;
9789;SDS011;4934;50.852;8.098;2024-01-30T04:18:03;48.77;;;18.37;;
9789;SDS011;4934;50.852;8.098;2024-01-30T04:20:29;41.47;;;18.13;;
9789;SDS011;4934;50.852;8.098;2024-01-30T04:22:55;31.70;;;15.07;;
9789;SDS011;4934;50.852;8.098;2024-01-30T04:25:20;38.63;;;16.23;;
9789;SDS011;4934;50.852;8.098;2024-01-30T04:27:46;39.63;;;16.23;;
9789;SDS011;4934;50.852;8.098;2024-01-30T04:30:11;37.57;;;15.00;;
9789;SDS011;4934;50.852;8.098;2024-01-30T04:32:37;40.97;;;15.50;;
9789;SDS011;4934;50.852;8.098;2024-01-30T04:35:03;43.10;;;17.23;;
9789;SDS011;4934;50.852;8.098;2024-01-30T04:37:29;35.23;;;15.40;;
9789;SDS011;4934;50.852;8.098;2024-01-30T04:39:54;38.53;;;16.97;;
9789;SDS011;4934;50.852;8.098;2024-01-30T04:42:20;43.77;;;15.90;;
9789;SDS011;4934;50.852;8.098;2024-01-30T04:44:46;46.87;;;17.40;;
9789;SDS011;4934;50.852;8.098;2024-01-30T04:47:11;50.73;;;17.20;;
9789;SDS011;4934;50.852;8.098;2024-01-30T04:49:40;42.27;;;16.97;;
9789;SDS011;4934;50.852;8.098;2024-01-30T04:52:06;45.83;;;17.17;;
9789;SDS011;4934;50.852;8.098;2024-01-30T04:54:33;42.63;;;17.83;;
9789;SDS011;4934;50.852;8.098;2024-01-30T04:56:59;43.67;;;18.63;;
9789;SDS011;4934;50.852;8.098;2024-01-30T04:59:25;42.63;;;16.43;;
9789;SDS011;4934;50.852;8.098;2024-01-30T05:01:50;38.53;;;15.67;;
9789;SDS011;4934;50.852;8.098;2024-01-30T05:04:16;50.97;;;18.93;;
9789;SDS011;4934;50.852;8.098;2024-01-30T05:06:41;44.03;;;17.53;;
9789;SDS011;4934;50.852;8.098;2024-01-30T05:09:07;41.47;;;17.23;;
9789;SDS011;4934;50.852;8.098;2024-01-30T05:11:37;36.40;;;16.43;;
9789;SDS011;4934;50.852;8.098;2024-01-30T05:14:06;39.93;;;15.63;;
9789;SDS011;4934;50.852;8.098;2024-01-30T05:16:32;35.83;;;15.70;;
9789;SDS011;4934;50.852;8.098;2024-01-30T05:18:58;46.87;;;18.83;;
9789;SDS011;4934;50.852;8.098;2024-01-30T05:21:24;44.77;;;17.53;;
9789;SDS011;4934;50.852;8.098;2024-01-30T05:23:50;42.77;;;17.87;;
9789;SDS011;4934;50.852;8.098;2024-01-30T05:26:15;38.80;;;16.50;;
9789;SDS011;4934;50.852;8.098;2024-01-30T05:28:41;36.83;;;16.73;;
9789;SDS011;4934;50.852;8.098;2024-01-30T05:31:06;39.57;;;16.57;;
9789;SDS011;4934;50.852;8.098;2024-01-30T05:33:32;43.57;;;17.10;;
9789;SDS011;4934;50.852;8.098;2024-01-30T05:35:58;45.63;;;16.67;;
9789;SDS011;4934;50.852;8.098;2024-01-30T05:38:24;42.13;;;16.23;;
9789;SDS011;4934;50.852;8.098;2024-01-30T05:40:50;44.23;;;16.77;;
9789;SDS011;4934;50.852;8.098;2024-01-30T05:43:15;39.90;;;17.90;;
9789;SDS011;4934;50.852;8.098;2024-01-30T05:45:41;38.67;;;14.77;;
9789;SDS011;4934;50.852;8.098;2024-01-30T05:48:06;39.53;;;15.50;;
9789;SDS011;4934;50.852;8.098;2024-01-30T05:50:32;38.67;;;16.13;;
9789;SDS011;4934;50.852;8.098;2024-01-30T05:52:58;40.13;;;18.03;;
9789;SDS011;4934;50.852;8.098;2024-01-30T05:55:23;37.90;;;15.77;;
9789;SDS011;4934;50.852;8.098;2024-01-30T05:57:49;36.23;;;15.30;;
9789;SDS011;4934;50.852;8.098;2024-01-30T06:00:14;44.13;;;16.87;;
9789;SDS011;4934;50.852;8.098;2024-01-30T06:02:40;42.63;;;17.13;;
9789;SDS011;4934;50.852;8.098;2024-01-30T06:05:06;40.23;;;16.40;;
9789;SDS011;4934;50.852;8.098;2024-01-30T06:07:32;31.17;;;12.90;;
9789;SDS011;4934;50.852;8.098;2024-01-30T06:09:57;38.13;;;15.33;;
9789;SDS011;4934;50.852;8.098;2024-01-30T06:12:25;36.47;;;14.27;;
9789;SDS011;4934;50.852;8.098;2024-01-30T06:14:52;42.70;;;16.73;;
9789;SDS011;4934;50.852;8.098;2024-01-30T06:17:19;42.57;;;15.07;;
9789;SDS011;4934;50.852;8.098;2024-01-30T06:19:46;40.43;;;14.57;;
9789;SDS011;4934;50.852;8.098;2024-01-30T06:22:11;38.97;;;15.37;;
9789;SDS011;4934;50.852;8.098;2024-01-30T06:24:37;39.37;;;14.60;;
9789;SDS011;4934;50.852;8.098;2024-01-30T06:27:03;34.13;;;13.80;;
9789;SDS011;4934;50.852;8.098;2024-01-30T06:29:29;29.67;;;12.97;;
9789;SDS011;4934;50.852;8.098;2024-01-30T06:31:54;31.90;;;13.43;;
9789;SDS011;4934;50.852;8.098;2024-01-30T06:34:20;52.90;;;16.00;;
9789;SDS011;4934;50.852;8.098;2024-01-30T06:36:46;32.73;;;14.53;;
9789;SDS011;4934;50.852;8.098;2024-01-30T06:39:11;32.67;;;14.43;;
9789;SDS011;4934;50.852;8.098;2024-01-30T06:41:37;33.47;;;15.80;;
9789;SDS011;4934;50.852;8.098;2024-01-30T06:44:03;43.87;;;17.63;;
9789;SDS011;4934;50.852;8.098;2024-01-30T06:46:33;58.53;;;21.13;;
9789;SDS011;4934;50.852;8.098;2024-01-30T06:49:00;56.23;;;20.13;;
9789;SDS011;4934;50.852;8.098;2024-01-30T06:51:26;43.43;;;16.00;;
9789;SDS011;4934;50.852;8.098;2024-01-30T06:53:52;42.70;;;16.87;;
9789;SDS011;4934;50.852;8.098;2024-01-30T06:56:17;39.97;;;16.47;;
9789;SDS011;4934;50.852;8.098;2024-01-30T06:58:49;29.85;;;11.48;;
9789;SDS011;4934;50.852;8.098;2024-01-30T07:01:15;46.10;;;17.47;;
9789;SDS011;4934;50.852;8.098;2024-01-30T07:03:41;55.60;;;20.43;;
9789;SDS011;4934;50.852;8.098;2024-01-30T07:06:07;71.10;;;20.77;;
9789;SDS011;4934;50.852;8.098;2024-01-30T07:08:34;45.63;;;18.63;;
9789;SDS011;4934;50.852;8.098;2024-01-30T07:10:59;37.17;;;15.73;;
9789;SDS011;4934;50.852;8.098;2024-01-30T07:13:26;30.07;;;12.17;;
9789;SDS011;4934;50.852;8.098;2024-01-30T07:15:53;27.37;;;11.33;;
9789;SDS011;4934;50.852;8.098;2024-01-30T07:18:19;27.60;;;11.37;;
9789;SDS011;4934;50.852;8.098;2024-01-30T07:20:44;29.67;;;12.33;;
9789;SDS011;4934;50.852;8.098;2024-01-30T07:23:14;31.37;;;13.30;;
9789;SDS011;4934;50.852;8.098;2024-01-30T07:25:42;27.35;;;11.50;;
9789;SDS011;4934;50.852;8.098;2024-01-30T07:28:11;30.63;;;12.90;;
9789;SDS011;4934;50.852;8.098;2024-01-30T07:30:41;32.70;;;12.33;;
9789;SDS011;4934;50.852;8.098;2024-01-30T07:33:07;25.13;;;11.40;;
9789;SDS011;4934;50.852;8.098;2024-01-30T07:35:35;29.97;;;13.20;;
9789;SDS011;4934;50.852;8.098;2024-01-30T07:38:01;39.97;;;15.10;;
9789;SDS011;4934;50.852;8.098;2024-01-30T07:40:27;32.23;;;12.93;;
9789;SDS011;4934;50.852;8.098;2024-01-30T07:42:53;36.47;;;13.70;;
9789;SDS011;4934;50.852;8.098;2024-01-30T07:45:19;41.57;;;12.17;;
9789;SDS011;4934;50.852;8.098;2024-01-30T07:47:49;35.43;;;13.23;;
9789;SDS011;4934;50.852;8.098;2024-01-30T07:50:15;34.27;;;12.83;;
9789;SDS011;4934;50.852;8.098;2024-01-30T07:52:42;49.97;;;20.43;;
9789;SDS011;4934;50.852;8.098;2024-01-30T07:55:08;45.23;;;18.93;;
9789;SDS011;4934;50.852;8.098;2024-01-30T07:57:35;53.90;;;20.30;;
9789;SDS011;4934;50.852;8.098;2024-01-30T08:00:03;49.25;;;19.20;;
9789;SDS011;4934;50.852;8.098;2024-01-30T08:02:36;43.70;;;17.97;;
9789;SDS011;4934;50.852;8.098;2024-01-30T08:05:02;43.60;;;16.90;;
9789;SDS011;4934;50.852;8.098;2024-01-30T08:07:28;47.53;;;17.53;;
9789;SDS011;4934;50.852;8.098;2024-01-30T08:10:00;43.03;;;18.17;;
9789;SDS011;4934;50.852;8.098;2024-01-30T08:12:28;39.27;;;16.90;;
9789;SDS011;4934;50.852;8.098;2024-01-30T08:15:01;41.70;;;17.03;;
9789;SDS011;4934;50.852;8.098;2024-01-30T08:17:37;42.73;;;17.97;;
9789;SDS011;4934;50.852;8.098;2024-01-30T08:20:07;37.50;;;15.77;;
9789;SDS011;4934;50.852;8.098;2024-01-30T08:22:56;33.83;;;16.20;;
9789;SDS011;4934;50.852;8.098;2024-01-30T08:25:51;44.37;;;20.10;;
9789;SDS011;4934;50.852;8.098;2024-01-30T08:28:26;50.60;;;22.83;;
9789;SDS011;4934;50.852;8.098;2024-01-30T08:30:55;60.83;;;27.00;;
9789;SDS011;4934;50.852;8.098;2024-01-30T08:33:21;45.57;;;20.23;;
9789;SDS011;4934;50.852;8.098;2024-01-30T08:35:46;38.27;;;15.57;;
9789;SDS011;4934;50.852;8.098;2024-01-30T08:38:12;34.10;;;15.80;;
9789;SDS011;4934;50.852;8.098;2024-01-30T08:40:40;48.20;;;19.02;;
9789;SDS011;4934;50.852;8.098;2024-01-30T08:43:05;51.33;;;20.23;;
9789;SDS011;4934;50.852;8.098;2024-01-30T08:45:31;44.30;;;18.47;;
9789;SDS011;4934;50.852;8.098;2024-01-30T08:47:57;45.80;;;20.13;;
9789;SDS011;4934;50.852;8.098;2024-01-30T09:26:08;42.72;;;18.17;;
9789;SDS011;4934;50.852;8.098;2024-01-30T09:28:34;42.40;;;17.77;;
9789;SDS011;4934;50.852;8.098;2024-01-30T09:31:00;41.50;;;17.30;;
9789;SDS011;4934;50.852;8.098;2024-01-30T09:33:26;40.13;;;18.33;;
9789;SDS011;4934;50.852;8.098;2024-01-30T09:35:52;43.25;;;20.10;;
9789;SDS011;4934;50.852;8.098;2024-01-30T09:38:18;41.65;;;19.52;;
9789;SDS011;4934;50.852;8.098;2024-01-30T09:40:44;51.88;;;23.45;;
9789;SDS011;4934;50.852;8.098;2024-01-30T09:43:13;53.78;;;25.38;;
9789;SDS011;4934;50.852;8.098;2024-01-30T09:45:44;50.95;;;23.67;;
9789;SDS011;4934;50.852;8.098;2024-01-30T09:48:11;51.40;;;25.80;;
9789;SDS011;4934;50.852;8.098;2024-01-30T09:50:37;50.40;;;23.98;;
9789;SDS011;4934;50.852;8.098;2024-01-30T09:53:04;56.97;;;25.60;;
9789;SDS011;4934;50.852;8.098;2024-01-30T09:55:31;50.67;;;22.55;;
9789;SDS011;4934;50.852;8.098;2024-01-30T09:57:58;48.35;;;20.67;;
9789;SDS011;4934;50.852;8.098;2024-01-30T10:00:24;47.00;;;20.73;;
9789;SDS011;4934;50.852;8.098;2024-01-30T10:02:52;36.13;;;17.13;;
9789;SDS011;4934;50.852;8.098;2024-01-30T10:05:19;39.03;;;17.98;;
9789;SDS011;4934;50.852;8.098;2024-01-30T10:07:54;51.58;;;23.88;;
9789;SDS011;4934;50.852;8.098;2024-01-30T10:10:22;38.70;;;17.95;;
9789;SDS011;4934;50.852;8.098;2024-01-30T10:12:48;36.80;;;17.08;;
9789;SDS011;4934;50.852;8.098;2024-01-30T10:15:14;43.58;;;18.98;;
9789;SDS011;4934;50.852;8.098;2024-01-30T10:17:40;41.45;;;22.77;;
9789;SDS011;4934;50.852;8.098;2024-01-30T10:20:05;46.80;;;24.55;;
9789;SDS011;4934;50.852;8.098;2024-01-30T10:22:32;48.05;;;22.65;;
9789;SDS011;4934;50.852;8.098;2024-01-30T10:24:58;44.35;;;22.70;;
9789;SDS011;4934;50.852;8.098;2024-01-30T10:27:25;47.88;;;21.77;;
9789;SDS011;4934;50.852;8.098;2024-01-30T10:29:54;42.42;;;22.67;;
9789;SDS011;4934;50.852;8.098;2024-01-30T10:32:20;51.30;;;25.50;;
9789;SDS011;4934;50.852;8.098;2024-01-30T10:34:46;51.47;;;25.95;;
9789;SDS011;4934;50.852;8.098;2024-01-30T10:37:12;54.33;;;27.25;;
9789;SDS011;4934;50.852;8.098;2024-01-30T10:39:40;53.40;;;27.52;;
9789;SDS011;4934;50.852;8.098;2024-01-30T10:42:11;55.15;;;24.90;;
9789;SDS011;4934;50.852;8.098;2024-01-30T10:44:51;46.15;;;22.27;;
9789;SDS011;4934;50.852;8.098;2024-01-30T10:47:28;40.13;;;18.83;;
9789;SDS011;4934;50.852;8.098;2024-01-30T10:49:54;38.42;;;18.85;;
9789;SDS011;4934;50.852;8.098;2024-01-30T10:52:21;31.73;;;16.25;;
9789;SDS011;4934;50.852;8.098;2024-01-30T10:54:50;48.05;;;26.63;;
9789;SDS011;4934;50.852;8.098;2024-01-30T10:57:17;40.83;;;22.02;;
9789;SDS011;4934;50.852;8.098;2024-01-30T10:59:43;41.97;;;22.15;;
9789;SDS011;4934;50.852;8.098;2024-01-30T11:07:24;44.35;;;20.63;;
9789;SDS011;4934;50.852;8.098;2024-01-30T11:22:50;38.13;;;21.52;;
9789;SDS011;4934;50.852;8.098;2024-01-30T11:25:19;39.53;;;19.20;;
9789;SDS011;4934;50.852;8.098;2024-01-30T11:27:46;42.67;;;21.55;;
9789;SDS011;4934;50.852;8.098;2024-01-30T11:30:47;37.80;;;18.80;;
9789;SDS011;4934;50.852;8.098;2024-01-30T11:33:10;35.33;;;19.63;;
9789;SDS011;4934;50.852;8.098;2024-01-30T11:35:45;34.45;;;18.42;;
9789;SDS011;4934;50.852;8.098;2024-01-30T11:38:15;41.33;;;21.15;;
9789;SDS011;4934;50.852;8.098;2024-01-30T11:40:41;39.50;;;19.65;;
9789;SDS011;4934;50.852;8.098;2024-01-30T11:43:09;48.10;;;25.10;;
9789;SDS011;4934;50.852;8.098;2024-01-30T11:45:35;52.80;;;25.25;;
9789;SDS011;4934;50.852;8.098;2024-01-30T11:48:02;58.58;;;26.00;;
9789;SDS011;4934;50.852;8.098;2024-01-30T11:50:35;47.30;;;23.92;;
9789;SDS011;4934;50.852;8.098;2024-01-30T11:53:03;43.55;;;22.80;;
9789;SDS011;4934;50.852;8.098;2024-01-30T11:55:30;44.70;;;23.10;;
9789;SDS011;4934;50.852;8.098;2024-01-30T11:57:59;45.75;;;22.90;;
9789;SDS011;4934;50.852;8.098;2024-01-30T12:00:25;41.72;;;21.65;;
9789;SDS011;4934;50.852;8.098;2024-01-30T12:02:54;44.90;;;21.55;;
9789;SDS011;4934;50.852;8.098;2024-01-30T12:05:25;47.08;;;22.40;;
9789;SDS011;4934;50.852;8.098;2024-01-30T12:07:51;48.25;;;24.63;;
9789;SDS011;4934;50.852;8.098;2024-01-30T12:10:17;40.50;;;19.58;;
9789;SDS011;4934;50.852;8.098;2024-01-30T12:12:45;40.97;;;21.52;;
9789;SDS011;4934;50.852;8.098;2024-01-30T12:15:12;35.80;;;18.55;;
9789;SDS011;4934;50.852;8.098;2024-01-30T12:17:38;33.35;;;16.35;;
9789;SDS011;4934;50.852;8.098;2024-01-30T12:22:36;31.58;;;16.67;;
9789;SDS011;4934;50.852;8.098;2024-01-30T12:25:39;25.80;;;13.38;;
9789;SDS011;4934;50.852;8.098;2024-01-30T12:27:58;39.60;;;20.50;;
9789;SDS011;4934;50.852;8.098;2024-01-30T12:30:23;40.17;;;20.45;;
9789;SDS011;4934;50.852;8.098;2024-01-30T12:32:49;42.22;;;22.25;;
9789;SDS011;4934;50.852;8.098;2024-01-30T12:35:19;48.20;;;22.90;;
9789;SDS011;4934;50.852;8.098;2024-01-30T12:37:46;43.80;;;22.42;;
9789;SDS011;4934;50.852;8.098;2024-01-30T12:40:16;45.45;;;22.65;;
9789;SDS011;4934;50.852;8.098;2024-01-30T12:42:42;42.03;;;22.75;;
9789;SDS011;4934;50.852;8.098;2024-01-30T12:47:36;43.90;;;20.10;;
9789;SDS011;4934;50.852;8.098;2024-01-30T12:50:02;37.60;;;19.67;;
9789;SDS011;4934;50.852;8.098;2024-01-30T12:52:28;44.67;;;22.13;;
9789;SDS011;4934;50.852;8.098;2024-01-30T12:54:54;45.47;;;21.17;;
9789;SDS011;4934;50.852;8.098;2024-01-30T12:57:20;40.15;;;20.50;;
9789;SDS011;4934;50.852;8.098;2024-01-30T12:59:45;38.92;;;19.38;;
9789;SDS011;4934;50.852;8.098;2024-01-30T13:02:14;41.72;;;21.30;;
9789;SDS011;4934;50.852;8.098;2024-01-30T13:04:41;40.72;;;20.40;;
9789;SDS011;4934;50.852;8.098;2024-01-30T13:07:07;44.10;;;21.50;;
9789;SDS011;4934;50.852;8.098;2024-01-30T13:09:32;42.00;;;20.80;;
9789;SDS011;4934;50.852;8.098;2024-01-30T13:11:58;40.70;;;18.30;;
9789;SDS011;4934;50.852;8.098;2024-01-30T13:14:24;36.45;;;16.50;;
9789;SDS011;4934;50.852;8.098;2024-01-30T13:16:50;36.92;;;16.63;;
9789;SDS011;4934;50.852;8.098;2024-01-30T13:19:17;34.40;;;15.95;;
9789;SDS011;4934;50.852;8.098;2024-01-30T13:21:42;32.35;;;15.10;;
9789;SDS011;4934;50.852;8.098;2024-01-30T13:24:08;33.65;;;15.75;;
9789;SDS011;4934;50.852;8.098;2024-01-30T13:26:34;33.25;;;14.80;;
9789;SDS011;4934;50.852;8.098;2024-01-30T13:29:00;25.23;;;12.90;;
9789;SDS011;4934;50.852;8.098;2024-01-30T13:31:26;24.95;;;12.00;;
9789;SDS011;4934;50.852;8.098;2024-01-30T13:33:52;25.02;;;11.57;;
9789;SDS011;4934;50.852;8.098;2024-01-30T13:36:18;23.77;;;11.45;;
9789;SDS011;4934;50.852;8.098;2024-01-30T13:38:44;17.90;;;9.85;;
9789;SDS011;4934;50.852;8.098;2024-01-30T13:41:09;22.80;;;10.07;;
9789;SDS011;4934;50.852;8.098;2024-01-30T13:43:35;26.45;;;10.52;;
9789;SDS011;4934;50.852;8.098;2024-01-30T13:46:01;22.10;;;10.30;;
9789;SDS011;4934;50.852;8.098;2024-01-30T13:48:26;32.30;;;16.65;;
9789;SDS011;4934;50.852;8.098;2024-01-30T13:50:52;32.78;;;14.98;;
9789;SDS011;4934;50.852;8.098;2024-01-30T13:53:18;39.28;;;18.73;;
9789;SDS011;4934;50.852;8.098;2024-01-30T13:55:44;36.03;;;18.17;;
9789;SDS011;4934;50.852;8.098;2024-01-30T13:58:10;32.60;;;15.90;;
9789;SDS011;4934;50.852;8.098;2024-01-30T14:00:36;36.80;;;15.43;;
9789;SDS011;4934;50.852;8.098;2024-01-30T14:03:01;30.42;;;16.90;;
9789;SDS011;4934;50.852;8.098;2024-01-30T14:05:28;34.15;;;17.98;;
9789;SDS011;4934;50.852;8.098;2024-01-30T14:07:53;33.70;;;17.70;;
9789;SDS011;4934;50.852;8.098;2024-01-30T14:10:20;30.60;;;15.70;;
9789;SDS011;4934;50.852;8.098;2024-01-30T14:12:45;37.72;;;17.20;;
9789;SDS011;4934;50.852;8.098;2024-01-30T14:15:13;32.17;;;15.80;;
9789;SDS011;4934;50.852;8.098;2024-01-30T14:17:40;35.17;;;16.20;;
9789;SDS011;4934;50.852;8.098;2024-01-30T14:20:06;36.33;;;16.48;;
9789;SDS011;4934;50.852;8.098;2024-01-30T14:22:33;39.88;;;17.90;;
9789;SDS011;4934;50.852;8.098;2024-01-30T14:24:59;42.38;;;17.90;;
9789;SDS011;4934;50.852;8.098;2024-01-30T14:27:25;40.45;;;17.35;;
9789;SDS011;4934;50.852;8.098;2024-01-30T14:29:51;39.33;;;14.75;;
9789;SDS011;4934;50.852;8.098;2024-01-30T14:32:17;37.33;;;15.60;;
9789;SDS011;4934;50.852;8.098;2024-01-30T14:34:43;33.05;;;14.13;;
9789;SDS011;4934;50.852;8.098;2024-01-30T14:37:09;36.45;;;14.73;;
9789;SDS011;4934;50.852;8.098;2024-01-30T14:39:34;38.25;;;16.10;;
9789;SDS011;4934;50.852;8.098;2024-01-30T14:42:02;34.22;;;15.05;;
9789;SDS011;4934;50.852;8.098;2024-01-30T14:44:28;33.95;;;13.50;;
9789;SDS011;4934;50.852;8.098;2024-01-30T14:46:55;33.72;;;14.32;;
9789;SDS011;4934;50.852;8.098;2024-01-30T14:49:21;28.00;;;13.10;;
9789;SDS011;4934;50.852;8.098;2024-01-30T14:51:47;28.27;;;12.82;;
9789;SDS011;4934;50.852;8.098;2024-01-30T14:54:12;31.95;;;12.88;;
9789;SDS011;4934;50.852;8.098;2024-01-30T14:56:38;28.88;;;14.57;;
9789;SDS011;4934;50.852;8.098;2024-01-30T14:59:04;41.20;;;16.85;;
9789;SDS011;4934;50.852;8.098;2024-01-30T15:01:30;44.85;;;16.52;;
9789;SDS011;4934;50.852;8.098;2024-01-30T15:03:55;29.98;;;14.00;;
9789;SDS011;4934;50.852;8.098;2024-01-30T15:06:21;22.75;;;10.85;;
9789;SDS011;4934;50.852;8.098;2024-01-30T15:08:49;17.15;;;7.43;;
9789;SDS011;4934;50.852;8.098;2024-01-30T15:11:15;16.05;;;7.22;;
9789;SDS011;4934;50.852;8.098;2024-01-30T15:13:41;10.95;;;5.93;;
9789;SDS011;4934;50.852;8.098;2024-01-30T15:16:07;10.52;;;5.72;;
9789;SDS011;4934;50.852;8.098;2024-01-30T15:18:33;11.30;;;5.63;;
9789;SDS011;4934;50.852;8.098;2024-01-30T15:20:58;15.35;;;6.13;;
9789;SDS011;4934;50.852;8.098;2024-01-30T15:23:24;15.98;;;6.38;;
9789;SDS011;4934;50.852;8.098;2024-01-30T15:25:50;17.48;;;7.15;;
9789;SDS011;4934;50.852;8.098;2024-01-30T15:28:15;22.35;;;9.63;;
9789;SDS011;4934;50.852;8.098;2024-01-30T15:30:42;28.27;;;10.93;;
9789;SDS011;4934;50.852;8.098;2024-01-30T15:33:09;35.40;;;13.63;;
9789;SDS011;4934;50.852;8.098;2024-01-30T15:35:35;33.70;;;12.82;;
9789;SDS011;4934;50.852;8.098;2024-01-30T15:38:03;34.70;;;14.93;;
9789;SDS011;4934;50.852;8.098;2024-01-30T15:40:29;36.75;;;13.60;;
9789;SDS011;4934;50.852;8.098;2024-01-30T15:42:55;38.60;;;17.70;;
9789;SDS011;4934;50.852;8.098;2024-01-30T15:45:20;33.03;;;13.95;;
9789;SDS011;4934;50.852;8.098;2024-01-30T15:47:46;33.67;;;13.82;;